sensor_id;sensor_type;location;lat;lon;timestamp;pressure;altitude;pressure_sealevel;temperature;humidity
50103;BME280;35993;52.604;10.078;2023-07-31T00:00:44;100603.38;;;16.14;100.00
50103;BME280;35993;52.604;10.078;2023-07-31T00:03:11;100588.69;;;16.26;100.00
50103;BME280;35993;52.604;10.078;2023-07-31T00:05:37;100592.19;;;16.21;100.00
50103;BME280;35993;52.604;10.078;2023-07-31T00:08:02;100592.84;;;16.06;100.00
50103;BME280;35993;52.604;10.078;2023-07-31T00:10:28;100594.03;;;16.10;100.00
50103;BME280;35993;52.604;10.078;2023-07-31T00:12:53;100579.44;;;16.04;100.00
50103;BME280;35993;52.604;10.078;2023-07-31T00:15:19;100578.09;;;16.07;100.00
50103;BME280;35993;52.604;10.078;2023-07-31T00:17:44;100576.47;;;16.11;100.00
50103;BME280;35993;52.604;10.078;2023-07-31T00:20:10;100582.53;;;16.13;100.00
50103;BME280;35993;52.604;10.078;2023-07-31T00:22:36;100576.63;;;16.21;100.00
50103;BME280;35993;52.604;10.078;2023-07-31T00:25:01;100576.41;;;16.28;100.00
50103;BME280;35993;52.604;10.078;2023-07-31T00:27:27;100570.72;;;16.35;100.00
50103;BME280;35993;52.604;10.078;2023-07-31T00:29:52;100580.00;;;16.34;100.00
50103;BME280;35993;52.604;10.078;2023-07-31T00:32:18;100574.22;;;16.30;100.00
50103;BME280;35993;52.604;10.078;2023-07-31T00:34:43;100570.13;;;16.33;100.00
50103;BME280;35993;52.604;10.078;2023-07-31T00:37:09;100571.53;;;16.35;100.00
50103;BME280;35993;52.604;10.078;2023-07-31T00:39:34;100558.66;;;16.36;100.00
50103;BME280;35993;52.604;10.078;2023-07-31T00:42:01;100556.34;;;16.50;100.00
50103;BME280;35993;52.604;10.078;2023-07-31T00:44:27;100551.44;;;16.57;100.00
50103;BME280;35993;52.604;10.078;2023-07-31T00:46:53;100541.59;;;16.56;100.00
50103;BME280;35993;52.604;10.078;2023-07-31T00:49:20;100534.09;;;16.46;100.00
50103;BME280;35993;52.604;10.078;2023-07-31T00:51:45;100533.56;;;16.49;100.00
50103;BME280;35993;52.604;10.078;2023-07-31T00:54:11;100536.22;;;16.39;100.00
50103;BME280;35993;52.604;10.078;2023-07-31T00:56:38;100532.66;;;16.38;100.00
50103;BME280;35993;52.604;10.078;2023-07-31T00:59:05;100523.81;;;16.31;100.00
50103;BME280;35993;52.604;10.078;2023-07-31T01:01:32;100527.19;;;16.38;100.00
50103;BME280;35993;52.604;10.078;2023-07-31T01:03:58;100519.78;;;16.39;100.00
50103;BME280;35993;52.604;10.078;2023-07-31T01:06:36;100519.75;;;16.34;100.00
50103;BME280;35993;52.604;10.078;2023-07-31T01:09:11;100521.97;;;16.37;100.00
50103;BME280;35993;52.604;10.078;2023-07-31T01:11:48;100514.47;;;16.27;100.00
50103;BME280;35993;52.604;10.078;2023-07-31T01:14:16;100520.81;;;16.33;100.00
50103;BME280;35993;52.604;10.078;2023-07-31T01:16:41;100505.28;;;16.38;100.00
50103;BME280;35993;52.604;10.078;2023-07-31T01:19:08;100509.66;;;16.40;100.00
50103;BME280;35993;52.604;10.078;2023-07-31T01:24:23;100506.41;;;16.43;100.00
50103;BME280;35993;52.604;10.078;2023-07-31T01:27:06;100504.38;;;16.33;100.00
50103;BME280;35993;52.604;10.078;2023-07-31T01:29:59;100511.53;;;16.34;100.00
50103;BME280;35993;52.604;10.078;2023-07-31T01:32:28;100501.41;;;16.34;100.00
50103;BME280;35993;52.604;10.078;2023-07-31T01:34:56;100494.53;;;16.32;100.00
50103;BME280;35993;52.604;10.078;2023-07-31T01:37:28;100489.59;;;16.34;100.00
50103;BME280;35993;52.604;10.078;2023-07-31T01:39:55;100501.97;;;16.36;100.00
50103;BME280;35993;52.604;10.078;2023-07-31T01:42:20;100501.72;;;16.43;100.00
50103;BME280;35993;52.604;10.078;2023-07-31T01:44:46;100499.00;;;16.43;100.00
50103;BME280;35993;52.604;10.078;2023-07-31T01:47:11;100486.13;;;16.44;100.00
50103;BME280;35993;52.604;10.078;2023-07-31T01:49:37;100480.88;;;16.37;100.00
50103;BME280;35993;52.604;10.078;2023-07-31T01:52:02;100472.34;;;16.33;100.00
50103;BME280;35993;52.604;10.078;2023-07-31T01:54:28;100469.13;;;16.42;100.00
50103;BME280;35993;52.604;10.078;2023-07-31T01:56:54;100465.66;;;16.51;100.00
50103;BME280;35993;52.604;10.078;2023-07-31T01:59:19;100473.38;;;16.60;100.00
50103;BME280;35993;52.604;10.078;2023-07-31T02:01:45;100472.31;;;16.66;100.00
50103;BME280;35993;52.604;10.078;2023-07-31T02:04:10;100467.81;;;16.49;100.00
50103;BME280;35993;52.604;10.078;2023-07-31T02:06:36;100465.69;;;16.57;100.00
50103;BME280;35993;52.604;10.078;2023-07-31T02:09:02;100466.13;;;16.43;100.00
50103;BME280;35993;52.604;10.078;2023-07-31T02:11:31;100461.91;;;16.30;100.00
50103;BME280;35993;52.604;10.078;2023-07-31T02:13:56;100469.09;;;16.36;100.00
50103;BME280;35993;52.604;10.078;2023-07-31T02:16:22;100463.09;;;16.40;100.00
50103;BME280;35993;52.604;10.078;2023-07-31T02:18:47;100465.84;;;16.40;100.00
50103;BME280;35993;52.604;10.078;2023-07-31T02:21:13;100462.84;;;16.41;100.00
50103;BME280;35993;52.604;10.078;2023-07-31T02:23:38;100467.69;;;16.34;100.00
50103;BME280;35993;52.604;10.078;2023-07-31T02:26:04;100463.56;;;16.31;100.00
50103;BME280;35993;52.604;10.078;2023-07-31T02:28:31;100453.72;;;16.35;100.00
50103;BME280;35993;52.604;10.078;2023-07-31T02:30:56;100462.00;;;16.41;100.00
50103;BME280;35993;52.604;10.078;2023-07-31T02:33:22;100462.22;;;16.34;100.00
50103;BME280;35993;52.604;10.078;2023-07-31T02:35:47;100454.84;;;16.34;100.00
50103;BME280;35993;52.604;10.078;2023-07-31T02:38:13;100455.38;;;16.36;100.00
50103;BME280;35993;52.604;10.078;2023-07-31T02:40:41;100456.00;;;16.44;100.00
50103;BME280;35993;52.604;10.078;2023-07-31T02:43:07;100453.22;;;16.38;100.00
50103;BME280;35993;52.604;10.078;2023-07-31T02:45:33;100446.63;;;16.34;100.00
50103;BME280;35993;52.604;10.078;2023-07-31T02:47:58;100440.88;;;16.36;100.00
50103;BME280;35993;52.604;10.078;2023-07-31T02:50:24;100438.09;;;16.31;100.00
50103;BME280;35993;52.604;10.078;2023-07-31T02:52:50;100437.53;;;16.29;100.00
50103;BME280;35993;52.604;10.078;2023-07-31T02:55:15;100440.84;;;16.31;100.00
50103;BME280;35993;52.604;10.078;2023-07-31T02:57:41;100431.56;;;16.37;100.00
50103;BME280;35993;52.604;10.078;2023-07-31T03:00:07;100434.81;;;16.34;100.00
50103;BME280;35993;52.604;10.078;2023-07-31T03:02:33;100437.56;;;16.34;100.00
50103;BME280;35993;52.604;10.078;2023-07-31T03:04:58;100438.38;;;16.29;100.00
50103;BME280;35993;52.604;10.078;2023-07-31T03:07:26;100441.34;;;16.28;100.00
50103;BME280;35993;52.604;10.078;2023-07-31T03:09:52;100440.03;;;16.35;100.00
50103;BME280;35993;52.604;10.078;2023-07-31T03:12:19;100437.59;;;16.39;100.00
50103;BME280;35993;52.604;10.078;2023-07-31T03:14:45;100444.78;;;16.45;100.00
50103;BME280;35993;52.604;10.078;2023-07-31T03:17:11;100437.31;;;16.41;100.00
50103;BME280;35993;52.604;10.078;2023-07-31T03:19:36;100441.41;;;16.38;100.00
50103;BME280;35993;52.604;10.078;2023-07-31T03:22:02;100436.25;;;16.42;100.00
50103;BME280;35993;52.604;10.078;2023-07-31T03:24:28;100443.03;;;16.34;100.00
50103;BME280;35993;52.604;10.078;2023-07-31T03:26:54;100440.56;;;16.32;100.00
50103;BME280;35993;52.604;10.078;2023-07-31T03:29:20;100438.88;;;16.26;100.00
50103;BME280;35993;52.604;10.078;2023-07-31T03:31:45;100441.06;;;16.24;100.00
50103;BME280;35993;52.604;10.078;2023-07-31T03:34:11;100438.06;;;16.26;100.00
50103;BME280;35993;52.604;10.078;2023-07-31T03:36:36;100441.34;;;16.28;100.00
50103;BME280;35993;52.604;10.078;2023-07-31T03:39:02;100446.59;;;16.29;100.00
50103;BME280;35993;52.604;10.078;2023-07-31T03:41:29;100446.59;;;16.29;100.00
50103;BME280;35993;52.604;10.078;2023-07-31T03:43:55;100450.94;;;16.30;100.00
50103;BME280;35993;52.604;10.078;2023-07-31T03:46:24;100446.28;;;16.26;100.00
50103;BME280;35993;52.604;10.078;2023-07-31T03:48:50;100443.53;;;16.26;100.00
50103;BME280;35993;52.604;10.078;2023-07-31T03:51:16;100442.69;;;16.25;100.00
50103;BME280;35993;52.604;10.078;2023-07-31T03:53:43;100433.09;;;16.22;100.00
50103;BME280;35993;52.604;10.078;2023-07-31T03:56:09;100436.94;;;16.21;100.00
50103;BME280;35993;52.604;10.078;2023-07-31T03:58:34;100430.13;;;16.24;100.00
50103;BME280;35993;52.604;10.078;2023-07-31T04:01:01;100427.38;;;16.24;100.00
50103;BME280;35993;52.604;10.078;2023-07-31T04:03:26;100427.06;;;16.20;100.00
50103;BME280;35993;52.604;10.078;2023-07-31T04:05:54;100425.69;;;16.18;100.00
50103;BME280;35993;52.604;10.078;2023-07-31T04:08:19;100424.59;;;16.19;100.00
50103;BME280;35993;52.604;10.078;2023-07-31T04:10:45;100424.59;;;16.19;100.00
50103;BME280;35993;52.604;10.078;2023-07-31T04:13:10;100422.09;;;16.17;100.00
50103;BME280;35993;52.604;10.078;2023-07-31T04:15:36;100423.75;;;16.18;100.00
50103;BME280;35993;52.604;10.078;2023-07-31T04:18:01;100420.78;;;16.25;100.00
50103;BME280;35993;52.604;10.078;2023-07-31T04:20:27;100420.78;;;16.25;100.00
50103;BME280;35993;52.604;10.078;2023-07-31T04:22:52;100427.38;;;16.24;100.00
50103;BME280;35993;52.604;10.078;2023-07-31T04:25:18;100424.72;;;16.34;100.00
50103;BME280;35993;52.604;10.078;2023-07-31T04:27:44;100415.91;;;16.32;100.00
50103;BME280;35993;52.604;10.078;2023-07-31T04:30:09;100413.75;;;16.34;100.00
50103;BME280;35993;52.604;10.078;2023-07-31T04:32:35;100413.94;;;16.28;100.00
50103;BME280;35993;52.604;10.078;2023-07-31T04:35:01;100409.00;;;16.25;100.00
50103;BME280;35993;52.604;10.078;2023-07-31T04:37:27;100402.69;;;16.19;100.00
50103;BME280;35993;52.604;10.078;2023-07-31T04:39:52;100401.88;;;16.24;100.00
50103;BME280;35993;52.604;10.078;2023-07-31T04:42:18;100402.72;;;16.24;100.00
50103;BME280;35993;52.604;10.078;2023-07-31T04:44:43;100404.94;;;16.27;100.00
50103;BME280;35993;52.604;10.078;2023-07-31T04:47:09;100400.50;;;16.21;100.00
50103;BME280;35993;52.604;10.078;2023-07-31T04:49:34;100412.84;;;16.24;100.00
50103;BME280;35993;52.604;10.078;2023-07-31T04:52:00;100407.91;;;16.20;100.00
50103;BME280;35993;52.604;10.078;2023-07-31T04:54:25;100405.47;;;16.24;100.00
50103;BME280;35993;52.604;10.078;2023-07-31T04:56:51;100405.94;;;16.16;100.00
50103;BME280;35993;52.604;10.078;2023-07-31T04:59:18;100401.03;;;16.18;100.00
50103;BME280;35993;52.604;10.078;2023-07-31T05:01:43;100401.53;;;16.15;100.00
50103;BME280;35993;52.604;10.078;2023-07-31T05:04:13;100400.72;;;16.14;100.00
50103;BME280;35993;52.604;10.078;2023-07-31T05:06:39;100402.38;;;16.15;100.00
50103;BME280;35993;52.604;10.078;2023-07-31T05:09:05;100399.66;;;16.15;100.00
50103;BME280;35993;52.604;10.078;2023-07-31T05:11:30;100399.41;;;16.22;100.00
50103;BME280;35993;52.604;10.078;2023-07-31T05:13:56;100399.44;;;16.27;100.00
50103;BME280;35993;52.604;10.078;2023-07-31T05:16:21;100399.41;;;16.22;100.00
50103;BME280;35993;52.604;10.078;2023-07-31T05:18:47;100395.81;;;16.16;100.00
50103;BME280;35993;52.604;10.078;2023-07-31T05:21:12;100402.75;;;16.29;100.00
50103;BME280;35993;52.604;10.078;2023-07-31T05:23:38;100400.81;;;16.25;100.00
50103;BME280;35993;52.604;10.078;2023-07-31T05:26:05;100391.25;;;16.32;100.00
50103;BME280;35993;52.604;10.078;2023-07-31T05:28:30;100392.28;;;16.21;100.00
50103;BME280;35993;52.604;10.078;2023-07-31T05:31:00;100390.94;;;16.24;100.00
50103;BME280;35993;52.604;10.078;2023-07-31T05:33:26;100382.16;;;16.21;100.00
50103;BME280;35993;52.604;10.078;2023-07-31T05:35:52;100377.19;;;16.18;100.00
50103;BME280;35993;52.604;10.078;2023-07-31T05:38:17;100381.94;;;16.28;100.00
50103;BME280;35993;52.604;10.078;2023-07-31T05:40:43;100371.78;;;16.29;100.00
50103;BME280;35993;52.604;10.078;2023-07-31T05:43:08;100374.50;;;16.24;100.00
50103;BME280;35993;52.604;10.078;2023-07-31T05:45:35;100372.59;;;16.24;100.00
50103;BME280;35993;52.604;10.078;2023-07-31T05:48:01;100374.53;;;16.29;100.00
50103;BME280;35993;52.604;10.078;2023-07-31T05:50:26;100370.75;;;16.35;100.00
50103;BME280;35993;52.604;10.078;2023-07-31T05:52:52;100371.53;;;16.30;100.00
50103;BME280;35993;52.604;10.078;2023-07-31T05:55:17;100368.06;;;16.45;100.00
50103;BME280;35993;52.604;10.078;2023-07-31T05:57:43;100363.41;;;16.46;100.00
50103;BME280;35993;52.604;10.078;2023-07-31T06:00:12;100360.41;;;16.47;100.00
50103;BME280;35993;52.604;10.078;2023-07-31T06:02:37;100353.03;;;16.53;100.00
50103;BME280;35993;52.604;10.078;2023-07-31T06:05:04;100355.69;;;16.37;100.00
50103;BME280;35993;52.604;10.078;2023-07-31T06:07:31;100348.53;;;16.31;100.00
50103;BME280;35993;52.604;10.078;2023-07-31T06:09:57;100349.09;;;16.33;100.00
50103;BME280;35993;52.604;10.078;2023-07-31T06:12:28;100355.09;;;16.30;100.00
50103;BME280;35993;52.604;10.078;2023-07-31T06:14:54;100351.53;;;16.30;100.00
50103;BME280;35993;52.604;10.078;2023-07-31T06:17:20;100348.25;;;16.33;100.00
50103;BME280;35993;52.604;10.078;2023-07-31T06:19:46;100346.28;;;16.23;100.00
50103;BME280;35993;52.604;10.078;2023-07-31T06:22:12;100352.78;;;16.12;100.00
50103;BME280;35993;52.604;10.078;2023-07-31T06:24:38;100352.25;;;16.15;100.00
50103;BME280;35993;52.604;10.078;2023-07-31T06:27:03;100342.75;;;16.28;100.00
50103;BME280;35993;52.604;10.078;2023-07-31T06:29:29;100333.13;;;16.25;100.00
50103;BME280;35993;52.604;10.078;2023-07-31T06:31:55;100338.66;;;16.30;100.00
50103;BME280;35993;52.604;10.078;2023-07-31T06:34:21;100331.03;;;16.37;100.00
50103;BME280;35993;52.604;10.078;2023-07-31T06:36:46;100333.19;;;16.35;100.00
50103;BME280;35993;52.604;10.078;2023-07-31T06:39:12;100328.28;;;16.37;100.00
50103;BME280;35993;52.604;10.078;2023-07-31T06:41:38;100321.72;;;16.38;100.00
50103;BME280;35993;52.604;10.078;2023-07-31T06:44:05;100329.63;;;16.30;100.00
50103;BME280;35993;52.604;10.078;2023-07-31T06:46:31;100334.28;;;16.29;100.00
50103;BME280;35993;52.604;10.078;2023-07-31T06:48:56;100328.53;;;16.31;100.00
50103;BME280;35993;52.604;10.078;2023-07-31T06:51:22;100331.28;;;16.31;100.00
50103;BME280;35993;52.604;10.078;2023-07-31T06:53:47;100331.19;;;16.15;100.00
50103;BME280;35993;52.604;10.078;2023-07-31T06:56:13;100318.09;;;16.28;100.00
50103;BME280;35993;52.604;10.078;2023-07-31T06:58:39;100325.13;;;16.13;100.00
50103;BME280;35993;52.604;10.078;2023-07-31T07:01:04;100322.97;;;16.15;100.00
50103;BME280;35993;52.604;10.078;2023-07-31T07:03:30;100334.22;;;16.19;100.00
50103;BME280;35993;52.604;10.078;2023-07-31T07:05:55;100329.28;;;16.21;100.00
50103;BME280;35993;52.604;10.078;2023-07-31T07:08:21;100323.31;;;16.29;100.00
50103;BME280;35993;52.604;10.078;2023-07-31T07:10:46;100323.84;;;16.26;100.00
50103;BME280;35993;52.604;10.078;2023-07-31T07:13:12;100322.75;;;16.27;100.00
50103;BME280;35993;52.604;10.078;2023-07-31T07:15:38;100318.63;;;16.25;100.00
50103;BME280;35993;52.604;10.078;2023-07-31T07:18:04;100324.16;;;16.30;100.00
50103;BME280;35993;52.604;10.078;2023-07-31T07:20:30;100333.97;;;16.26;100.00
50103;BME280;35993;52.604;10.078;2023-07-31T07:22:55;100328.25;;;16.32;100.00
50103;BME280;35993;52.604;10.078;2023-07-31T07:25:21;100329.06;;;16.33;100.00
50103;BME280;35993;52.604;10.078;2023-07-31T07:27:46;100317.31;;;16.32;100.00
50103;BME280;35993;52.604;10.078;2023-07-31T07:30:12;100310.19;;;16.31;100.00
50103;BME280;35993;52.604;10.078;2023-07-31T07:32:37;100323.34;;;16.34;100.00
50103;BME280;35993;52.604;10.078;2023-07-31T07:35:03;100335.91;;;16.30;100.00
50103;BME280;35993;52.604;10.078;2023-07-31T07:37:29;100339.75;;;16.29;100.00
50103;BME280;35993;52.604;10.078;2023-07-31T07:39:54;100350.19;;;16.32;100.00
50103;BME280;35993;52.604;10.078;2023-07-31T07:42:20;100335.69;;;16.37;100.00
50103;BME280;35993;52.604;10.078;2023-07-31T07:44:45;100326.88;;;16.30;100.00
50103;BME280;35993;52.604;10.078;2023-07-31T07:47:12;100317.81;;;16.24;100.00
50103;BME280;35993;52.604;10.078;2023-07-31T07:49:37;100321.44;;;16.35;100.00
50103;BME280;35993;52.604;10.078;2023-07-31T07:52:03;100341.16;;;16.32;100.00
50103;BME280;35993;52.604;10.078;2023-07-31T07:54:29;100335.69;;;16.37;100.00
50103;BME280;35993;52.604;10.078;2023-07-31T07:56:55;100337.31;;;16.38;100.00
50103;BME280;35993;52.604;10.078;2023-07-31T07:59:21;100333.34;;;16.56;100.00
50103;BME280;35993;52.604;10.078;2023-07-31T08:01:46;100330.28;;;16.47;100.00
50103;BME280;35993;52.604;10.078;2023-07-31T08:04:12;100326.75;;;16.62;100.00
50103;BME280;35993;52.604;10.078;2023-07-31T08:06:38;100330.69;;;16.77;100.00
50103;BME280;35993;52.604;10.078;2023-07-31T08:09:03;100323.25;;;16.72;100.00
50103;BME280;35993;52.604;10.078;2023-07-31T08:11:34;100326.03;;;16.82;100.00
50103;BME280;35993;52.604;10.078;2023-07-31T08:14:00;100326.84;;;16.78;100.00
50103;BME280;35993;52.604;10.078;2023-07-31T08:16:26;100320.25;;;16.79;100.00
50103;BME280;35993;52.604;10.078;2023-07-31T08:18:51;100327.41;;;16.80;100.00
50103;BME280;35993;52.604;10.078;2023-07-31T08:21:17;100342.00;;;16.91;100.00
50103;BME280;35993;52.604;10.078;2023-07-31T08:23:42;100336.25;;;16.92;100.00
50103;BME280;35993;52.604;10.078;2023-07-31T08:26:08;100325.06;;;17.09;100.00
50103;BME280;35993;52.604;10.078;2023-07-31T08:28:33;100329.16;;;17.07;100.00
50103;BME280;35993;52.604;10.078;2023-07-31T08:31:00;100323.38;;;17.03;100.00
50103;BME280;35993;52.604;10.078;2023-07-31T08:33:25;100319.28;;;17.06;100.00
50103;BME280;35993;52.604;10.078;2023-07-31T08:35:51;100323.44;;;17.29;100.00
50103;BME280;35993;52.604;10.078;2023-07-31T08:38:16;100326.50;;;17.48;100.00
50103;BME280;35993;52.604;10.078;2023-07-31T08:40:42;100316.09;;;17.50;100.00
50103;BME280;35993;52.604;10.078;2023-07-31T08:43:08;100313.34;;;17.60;100.00
50103;BME280;35993;52.604;10.078;2023-07-31T08:45:34;100308.41;;;17.52;100.00
50103;BME280;35993;52.604;10.078;2023-07-31T08:47:59;100305.38;;;17.53;100.00
50103;BME280;35993;52.604;10.078;2023-07-31T08:50:25;100317.19;;;17.59;100.00
50103;BME280;35993;52.604;10.078;2023-07-31T08:52:52;100308.69;;;17.76;100.00
50103;BME280;35993;52.604;10.078;2023-07-31T08:55:18;100312.53;;;17.80;100.00
50103;BME280;35993;52.604;10.078;2023-07-31T08:57:50;100317.44;;;18.09;100.00
50103;BME280;35993;52.604;10.078;2023-07-31T09:00:17;100304.78;;;18.29;100.00
50103;BME280;35993;52.604;10.078;2023-07-31T09:02:48;100305.66;;;18.14;100.00
50103;BME280;35993;52.604;10.078;2023-07-31T09:05:17;100297.69;;;18.17;100.00
50103;BME280;35993;52.604;10.078;2023-07-31T09:07:47;100289.75;;;18.06;100.00
50103;BME280;35993;52.604;10.078;2023-07-31T09:10:13;100285.31;;;18.20;100.00
50103;BME280;35993;52.604;10.078;2023-07-31T09:12:39;100281.22;;;18.02;100.00
50103;BME280;35993;52.604;10.078;2023-07-31T09:15:05;100292.75;;;17.99;100.00
50103;BME280;35993;52.604;10.078;2023-07-31T09:17:35;100275.72;;;18.12;100.00
50103;BME280;35993;52.604;10.078;2023-07-31T09:20:19;100277.06;;;18.15;100.00
50103;BME280;35993;52.604;10.078;2023-07-31T09:22:45;100265.75;;;18.32;100.00
50103;BME280;35993;52.604;10.078;2023-07-31T09:25:19;100272.84;;;18.48;100.00
50103;BME280;35993;52.604;10.078;2023-07-31T09:27:47;100263.28;;;18.30;100.00
50103;BME280;35993;52.604;10.078;2023-07-31T09:30:14;100259.44;;;18.31;100.00
50103;BME280;35993;52.604;10.078;2023-07-31T09:32:39;100266.03;;;18.36;100.00
50103;BME280;35993;52.604;10.078;2023-07-31T09:35:31;100258.59;;;18.36;100.00
50103;BME280;35993;52.604;10.078;2023-07-31T09:37:59;100250.97;;;18.17;100.00
50103;BME280;35993;52.604;10.078;2023-07-31T09:40:30;100264.44;;;18.09;100.00
50103;BME280;35993;52.604;10.078;2023-07-31T09:42:58;100262.25;;;18.16;100.00
50103;BME280;35993;52.604;10.078;2023-07-31T09:45:25;100258.13;;;18.18;100.00
50103;BME280;35993;52.604;10.078;2023-07-31T09:47:51;100270.22;;;18.17;100.00
50103;BME280;35993;52.604;10.078;2023-07-31T09:50:17;100252.34;;;18.20;100.00
50103;BME280;35993;52.604;10.078;2023-07-31T09:52:42;100253.66;;;18.33;100.00
50103;BME280;35993;52.604;10.078;2023-07-31T09:55:09;100245.44;;;18.33;100.00
50103;BME280;35993;52.604;10.078;2023-07-31T09:57:40;100248.44;;;18.37;100.00
50103;BME280;35993;52.604;10.078;2023-07-31T10:00:07;100242.13;;;18.31;100.00
50103;BME280;35993;52.604;10.078;2023-07-31T10:02:38;100238.91;;;18.13;100.00
50103;BME280;35993;52.604;10.078;2023-07-31T10:05:06;100248.53;;;18.00;100.00
50103;BME280;35993;52.604;10.078;2023-07-31T10:07:37;100259.53;;;17.95;100.00
50103;BME280;35993;52.604;10.078;2023-07-31T10:10:07;100254.88;;;17.80;100.00
50103;BME280;35993;52.604;10.078;2023-07-31T10:12:33;100252.13;;;17.70;100.00
50103;BME280;35993;52.604;10.078;2023-07-31T10:15:00;100261.16;;;17.81;100.00
50103;BME280;35993;52.604;10.078;2023-07-31T10:17:26;100253.50;;;17.73;100.00
50103;BME280;35993;52.604;10.078;2023-07-31T10:19:53;100253.78;;;17.56;100.00
50103;BME280;35993;52.604;10.078;2023-07-31T10:22:21;100259.81;;;17.58;100.00
50103;BME280;35993;52.604;10.078;2023-07-31T10:24:48;100268.88;;;17.63;100.00
50103;BME280;35993;52.604;10.078;2023-07-31T10:27:13;100260.09;;;17.56;100.00
50103;BME280;35993;52.604;10.078;2023-07-31T10:29:41;100258.16;;;17.51;100.00
50103;BME280;35993;52.604;10.078;2023-07-31T10:32:10;100260.63;;;17.43;100.00
50103;BME280;35993;52.604;10.078;2023-07-31T10:34:39;100257.88;;;17.58;100.00
50103;BME280;35993;52.604;10.078;2023-07-31T10:42:38;100236.44;;;17.91;100.00
50103;BME280;35993;52.604;10.078;2023-07-31T10:45:08;100235.09;;;17.83;100.00
50103;BME280;35993;52.604;10.078;2023-07-31T10:47:44;100225.47;;;17.96;100.00
50103;BME280;35993;52.604;10.078;2023-07-31T10:50:20;100229.56;;;18.04;100.00
50103;BME280;35993;52.604;10.078;2023-07-31T10:52:54;100214.78;;;17.95;100.00
50103;BME280;35993;52.604;10.078;2023-07-31T10:55:31;100215.03;;;17.88;100.00
50103;BME280;35993;52.604;10.078;2023-07-31T10:58:05;100218.06;;;17.92;100.00
50103;BME280;35993;52.604;10.078;2023-07-31T11:00:31;100215.84;;;17.99;100.00
50103;BME280;35993;52.604;10.078;2023-07-31T11:03:02;100217.22;;;18.07;100.00
50103;BME280;35993;52.604;10.078;2023-07-31T11:08:19;100203.47;;;18.12;100.00
50103;BME280;35993;52.604;10.078;2023-07-31T11:10:47;100200.69;;;18.17;100.00
50103;BME280;35993;52.604;10.078;2023-07-31T11:13:13;100189.41;;;18.29;100.00
50103;BME280;35993;52.604;10.078;2023-07-31T11:15:39;100200.66;;;18.22;100.00
50103;BME280;35993;52.604;10.078;2023-07-31T11:18:05;100189.66;;;18.27;100.00
50103;BME280;35993;52.604;10.078;2023-07-31T11:20:35;100184.13;;;18.43;100.00
50103;BME280;35993;52.604;10.078;2023-07-31T11:23:06;100184.59;;;18.50;100.00
50103;BME280;35993;52.604;10.078;2023-07-31T11:25:33;100192.34;;;18.43;100.00
50103;BME280;35993;52.604;10.078;2023-07-31T11:28:04;100189.31;;;18.44;100.00
50103;BME280;35993;52.604;10.078;2023-07-31T11:30:29;100177.56;;;18.28;100.00
50103;BME280;35993;52.604;10.078;2023-07-31T11:32:55;100189.91;;;18.36;100.00
50103;BME280;35993;52.604;10.078;2023-07-31T11:35:21;100189.06;;;18.41;100.00
50103;BME280;35993;52.604;10.078;2023-07-31T11:37:47;100184.88;;;18.54;100.00
50103;BME280;35993;52.604;10.078;2023-07-31T11:40:14;100175.25;;;18.51;100.00
50103;BME280;35993;52.604;10.078;2023-07-31T11:42:40;100175.03;;;18.42;100.00
50103;BME280;35993;52.604;10.078;2023-07-31T11:45:07;100170.34;;;18.48;100.00
50103;BME280;35993;52.604;10.078;2023-07-31T11:47:34;100165.38;;;18.50;100.00
50103;BME280;35993;52.604;10.078;2023-07-31T11:50:01;100167.34;;;18.44;100.00
50103;BME280;35993;52.604;10.078;2023-07-31T11:52:29;100155.81;;;18.37;100.00
50103;BME280;35993;52.604;10.078;2023-07-31T11:54:56;100164.59;;;18.44;100.00
50103;BME280;35993;52.604;10.078;2023-07-31T11:57:22;100157.97;;;18.50;100.00
50103;BME280;35993;52.604;10.078;2023-07-31T11:59:49;100155.22;;;18.50;100.00
50103;BME280;35993;52.604;10.078;2023-07-31T12:02:16;100161.22;;;18.53;100.00
50103;BME280;35993;52.604;10.078;2023-07-31T12:04:43;100159.50;;;18.67;100.00
50103;BME280;35993;52.604;10.078;2023-07-31T12:07:08;100154.53;;;18.69;100.00
50103;BME280;35993;52.604;10.078;2023-07-31T12:09:34;100160.72;;;18.50;100.00
50103;BME280;35993;52.604;10.078;2023-07-31T12:11:59;100158.25;;;18.44;100.00
50103;BME280;35993;52.604;10.078;2023-07-31T12:14:28;100163.81;;;18.33;100.00
50103;BME280;35993;52.604;10.078;2023-07-31T12:16:59;100159.69;;;18.31;100.00
50103;BME280;35993;52.604;10.078;2023-07-31T12:19:25;100158.69;;;18.11;100.00
50103;BME280;35993;52.604;10.078;2023-07-31T12:21:56;100172.72;;;18.10;100.00
50103;BME280;35993;52.604;10.078;2023-07-31T12:24:21;100169.97;;;18.10;100.00
50103;BME280;35993;52.604;10.078;2023-07-31T12:26:48;100163.16;;;17.92;100.00
50103;BME280;35993;52.604;10.078;2023-07-31T12:29:14;100168.91;;;17.80;100.00
50103;BME280;35993;52.604;10.078;2023-07-31T12:31:42;100159.31;;;17.82;100.00
50103;BME280;35993;52.604;10.078;2023-07-31T12:34:18;100163.94;;;17.92;100.00
50103;BME280;35993;52.604;10.078;2023-07-31T12:36:46;100156.00;;;17.91;100.00
50103;BME280;35993;52.604;10.078;2023-07-31T12:39:12;100155.16;;;17.95;100.00